Bradleyville, MO (65614)

8:50 AM CDT on July 27, 2016 (GMT -0500)
Skyline Drive - Forsyth, MO | | Change Station

Elev 906 ft 36.70 °N, 93.09 °W | Updated 11 seconds ago

Mostly Cloudy
Mostly Cloudy
77.8 °F
Feels Like 80 °F
N
0.0
Wind Variable Wind from NE
Gusts 1.0 mph

Today
High -- | Low -- °F
--% Chance of Precip.
Yesterday
High -- | Low -- °F
Precip. -- in
Pressure 30.04 in
Visibility 7.0 miles
Clouds Mostly Cloudy 900 ft
Mostly Cloudy 1200 ft
Mostly Cloudy 20000 ft
Heat Index 80 °F
Dew Point 77 °F
Humidity 98%
Rainfall 0.00 in
Snow Depth Not available.
6:13 AM 8:21 PM
Last Quarter, 43% visible
METAR KBBG 271345Z 03003KT 7SM BKN009 BKN012 BKN200 24/24 A3004
Pressure 30.04 in
Visibility 7.0 miles
Clouds Mostly Cloudy 900 ft
Mostly Cloudy 1200 ft
Mostly Cloudy 20000 ft
Heat Index 80 °F
Dew Point 77 °F
Humidity 98%
Rainfall 0.00 in
Snow Depth Not available.
6:13 AM 8:21 PM
Last Quarter, 43% visible
METAR KBBG 271345Z 03003KT 7SM BKN009 BKN012 BKN200 24/24 A3004

10-Day Weather Forecast

Almanac

Astronomy

Jul. 27, 2016 Rise Set
Actual Time
Civil Twilight
Nautical Twilight
Astronomical Twilight
Moon
Length of Visible Light
Length of Day
Tomorrow will be .
, % of the Moon is Illuminated

Today's Extremes

State Highs State Lows

Community

WunderPhotos

Upload Photos

1,927,844 photos uploaded!

WunderBlog® & News

Nearby

Air Quality

  Air Quality AQ Index Pollutant
Not available.

Snow Depth

Station Depth Elevation

Earthquake Activity

City Distance Mag. Time & Date
Minimum magnitude displayed is 2.5.

Coastal Water Temperatures

Place Temperature

Stations

Nearby Weather Stations

Station Location Temp. Windchill Dew Point Humidity Wind Precip. Elev Updated Type
                   

Watches & Warnings

There are currently no watches in effect.